LIBD Airport Information

Runway Information
Runway 07 Length 8005 ft width 148 ft
Elevation 177 ft Threshold 0 ft Heading 69
Runway 25 Length 8005 ft Width 148 ft
Elevation 108 ft Threshold 0 ft Heading 249
Runway 12 Length 5512 ft width 164 ft
Elevation 108 ft Threshold 0 ft Heading 123
Runway 30 Length 5512 ft Width 164 ft
Elevation 108 ft Threshold 0 ft Heading 303
Airport Frequencies
Type APP Name APP Frequency 119.5 MHZ
Type TWR Name TWR Frequency 118.3 MHZ
Airport Navaids
Type VOR-DME Name Bari Frequency 116400 KHZ
Airport Weather Information & NOTAM
ADDS - METARS form results

(1703 UTC 24 September 2018)
Data provider http://aviationweather.gov/metar/data/
 
METAR text: LIBD 241650Z 06012KT 9999 FEW015 23/19 Q1015
Conditions at: LIBD (BARI/PALESE MACC, IT) observed 1650 UTC 24 September 2018
Temperature: 23.0°C (73°F)
Dewpoint: 19.0°C (66°F) [RH = 78%]
Pressure (altimeter): 29.97 inches Hg (1015.0 mb)
Winds: from the ENE (60 degrees) at 14 MPH (12 knots; 6.2 m/s)
Visibility: 6 or more miles (10+ km)
Ceiling: at least 12,000 feet AGL
Clouds: few clouds at 1500 feet AGL
Weather: no significant weather observed at this time

METAR text: LIBD 241620Z 05014KT 9999 FEW045 23/19 Q1015
Conditions at: LIBD (BARI/PALESE MACC, IT) observed 1620 UTC 24 September 2018
Temperature: 23.0°C (73°F)
Dewpoint: 19.0°C (66°F) [RH = 78%]
Pressure (altimeter): 29.97 inches Hg (1015.0 mb)
Winds: from the NE (50 degrees) at 16 MPH (14 knots; 7.2 m/s)
Visibility: 6 or more miles (10+ km)
Ceiling: at least 12,000 feet AGL
Clouds: few clouds at 4500 feet AGL
Weather: no significant weather observed at this time

Forecast for: LIBD (BARI/PALESE MACC, IT)
Text: TAF LIBD 241100Z 2412/2512 02015KT 9999 SCT040
Forecast period: 1200 UTC 24 September 2018 to 1200 UTC 25 September 2018
Forecast type: FROM: standard forecast or significant change
Winds: from the NNE (20 degrees) at 17 MPH (15 knots; 7.7 m/s)
Visibility: 6 or more miles 10+ km)
Ceiling: at least 12,000 feet AGL
Clouds: scattered clouds at 4000 feet AGL
Weather: no significant weather forecast for this period
Text: TEMPO 2415/2420 02018G28KT SHRA
Forecast period: 1500 to 2000 UTC 24 September 2018
Forecast type: TEMPORARY: The following changes expected for less than half the time period
Winds: from the NNE (20 degrees) at 21 MPH (18 knots; 9.3 m/s)
gusting to 32 MPH (28 knots; 14.4 m/s)
Visibility: missing
Ceiling: unknown
Clouds: missing
Weather: SHRA  (rain showers)